Dilliner, PA (15327)

10:12 AM EDT on August 30, 2015 (GMT -0400)
Hickory Ridge - Cheat Lake Morgantown | | Change Station
CLOSE
Current Station
Personal Weather Station
Location: Morgantown, WV
Elevation: 1119 ft
Nearby Weather Stations

Elev 1119 ft 39.68 °N, 79.90 °W | Updated 9 seconds ago

Partly Cloudy
Partly Cloudy
74.8 °F
Feels Like 76 °F
N
0.0
Wind Variable Wind from SSW
Gusts 0.0 mph

Today
High -- | Low -- °F
--% Chance of Precip.
Yesterday
High -- | Low -- °F
Precip. -- in
6:45 AM 7:54 PM
Full, 99% visible
Pressure 30.15 in
Visibility 10.0 miles
Clouds Clear
Heat Index 76 °F
Dew Point 65 °F
Humidity 71%
Rainfall 0.00 in
Snow Depth Not available.
UV 1.0 out of 12
Pollen 9.70 out of 12
Air Quality Not available.
Flu Activity Not available.
METAR KMGW 301353Z 19005KT 10SM CLR 24/16 A3017 RMK AO2 SLP208 T02440161
Pressure 30.15 in
Visibility 10.0 miles
Clouds Clear
Heat Index 76 °F
Dew Point 65 °F
Humidity 71%
Rainfall 0.00 in
Snow Depth Not available.
UV 1.0 out of 12
Pollen 9.70 out of 12
Air Quality Not available.
Flu Activity Not available.
METAR KMGW 301353Z 19005KT 10SM CLR 24/16 A3017 RMK AO2 SLP208 T02440161

10-Day Weather Forecast

×

Almanac

Astronomy

Aug. 30, 2015 Rise Set
Actual Time
Civil Twilight
Nautical Twilight
Astronomical Twilight
Moon
Length of Visible Light
Length of Day
Tomorrow will be .
, % of the Moon is Illuminated

Today's Extremes

State Highs State Lows

Community

WunderPhotos

Upload Photos

1,850,968 photos uploaded!

WunderBlogs® & News

Nearby

Air Quality

  Air Quality AQ Index Pollutant
Not available.

Snow Depth

Station Depth Elevation

Earthquake Activity

City Distance Mag. Time & Date
Minimum magnitude displayed is 2.5.

Coastal Water Temperatures

Place Temperature

Stations

Nearby Weather Stations

Station Location Temp. Windchill Dew Point Humidity Wind Precip. Elev Updated Type